Flight Information

DEPARTURE
LA VERNE, CA
Elevation:
1013
Runways:
8L/26R - 3661x75 - ASPH-G
8R/26L - 4840x75 - ASPH-G
Active PE Departure:
26L - 26R
Current PE ATIS:
J
Altimeter:
Remarks:
ATIS:
124.4 909-596-1523
Clearance Delivery:
121.875
Ground:
125
Tower:
118.2
DESTINATION
,
Elevation:
TPA:
1000 (est.)


6762.1 NM74° True-14° Var59° HDG

Flight Plan:
(click to file on line)

1. Type
2. Aircraft Identification
3. Aircraft Type / Special Equipment
4. True Airspeed
kts
5. Departure Airport
(ICAO code)
6. Arriving Airport
(ICAO code)
7. Cruising Altitude
ft
8. Alternate Airport
(ICAO code)
9. Route of Flight
10. Remarks


00:00:00 Departure ATIS: Destination ATIS:

Clearance Limit:
Route:
Altitude: Expect in minutes
Frequency:
Transponder: (7500 Hijack / 7600 Lost Comms / 7700 Emergency)


KPOC 101547Z 00000KT 10SM CLR 24/16 A3001
Time: 2020-07-10T15:47:00Z
1594399731
Winds: calm
Visibility: 10.0 sm
Clouds (AGL): CLR
Temperature: 24.0 C
Dew Point: 16.0 C
Pressure: 30.008858 in Hgbr


Notes:

Data extracted from FAA Digital Chart Supplement. Effective: 0901Z Thursday, May 21, 2020 to 0901Z Thursday, Jul 16, 2020
Current ATIS data is provided courtisy of PilotEdge.